Time;durP1;ratioP1;P1;durP2;ratioP2;P2;SDS_P1;SDS_P2;PMS_P1;PMS_P2;Temp;Humidity;BMP_temperature;BMP_pressure;BME280_temperature;BME280_humidity;BME280_pressure;Samples;Min_cycle;Max_cycle;Signal;HPM_P1;HPM_P2
2021/07/21 00:01:55;;;;;;;;;;;;;;;27.24;44.34;99266.00;5093454;28;19919;-37
2021/07/21 00:04:20;;;;;;;;;;;;;;;27.03;45.08;99263.16;5093696;28;19916;-37
2021/07/21 00:06:45;;;;;;;;;;;;;;;27.56;44.00;99263.84;5093183;28;19916;-37
2021/07/21 00:09:11;;;;;;;;;;;;;;;27.43;44.05;99268.38;5093182;28;19935;-37
2021/07/21 00:14:20;;;;;;;;;;;;;;;27.21;44.81;99272.13;5093175;28;20307;-37
2021/07/21 00:16:57;;;;;;;;;;;;;;;27.18;44.85;99278.25;5093470;28;19916;-37
2021/07/21 00:20:06;;;;;;;;;;;;;;;27.20;44.65;99277.91;5092597;28;19959;-37
2021/07/21 00:22:14;;;;;;;;;;;;;;;27.20;44.67;99280.66;5087191;28;20402;-38
2021/07/21 00:24:43;;;;;;;;;;;;;;;27.23;44.41;99280.81;5093707;28;19919;-37
2021/07/21 00:27:08;;;;;;;;;;;;;;;27.15;44.75;99269.88;5073011;28;19916;-37
2021/07/21 00:29:34;;;;;;;;;;;;;;;27.01;44.92;99284.53;5073128;28;20462;-37
2021/07/21 00:31:59;;;;;;;;;;;;;;;26.98;45.13;99268.81;5073076;28;19916;-36
2021/07/21 00:34:24;;;;;;;;;;;;;;;27.11;44.58;99273.28;5073348;28;19995;-36
2021/07/21 00:36:49;;;;;;;;;;;;;;;26.98;44.65;99271.56;5073050;28;19917;-37
2021/07/21 00:39:15;;;;;;;;;;;;;;;26.68;45.29;99276.88;5073246;28;20309;-38
2021/07/21 00:41:40;;;;;;;;;;;;;;;26.82;45.13;99278.63;5073072;28;20049;-38
2021/07/21 00:44:05;;;;;;;;;;;;;;;26.75;44.74;99275.59;5073225;28;19943;-38
2021/07/21 00:46:31;;;;;;;;;;;;;;;26.79;44.84;99273.81;5073128;28;19970;-36
2021/07/21 00:48:56;;;;;;;;;;;;;;;26.85;44.47;99278.78;5073217;28;19912;-37
2021/07/21 00:51:21;;;;;;;;;;;;;;;26.78;44.82;99286.66;5072706;28;19962;-37
2021/07/21 00:53:47;;;;;;;;;;;;;;;26.88;44.41;99274.59;5072598;28;20010;-37
2021/07/21 00:56:12;;;;;;;;;;;;;;;26.91;44.20;99282.16;5072756;28;19946;-38
2021/07/21 00:58:38;;;;;;;;;;;;;;;27.01;44.40;99287.25;5072965;28;19999;-38
2021/07/21 01:01:03;;;;;;;;;;;;;;;27.14;43.97;99287.41;5105189;28;19912;-37
2021/07/21 01:03:28;;;;;;;;;;;;;;;27.04;44.27;99272.19;5072164;28;19912;-36
2021/07/21 01:05:54;;;;;;;;;;;;;;;27.18;44.06;99280.19;5071970;28;19924;-37
2021/07/21 01:08:21;;;;;;;;;;;;;;;26.75;44.72;99279.13;5072086;28;20023;-38
2021/07/21 01:11:06;;;;;;;;;;;;;;;26.54;45.30;99284.41;5071695;28;19920;-38
2021/07/21 01:13:33;;;;;;;;;;;;;;;26.83;44.69;99286.50;5064572;28;20294;-36
2021/07/21 01:16:02;;;;;;;;;;;;;;;26.95;44.33;99290.50;5071555;28;19913;-37
2021/07/21 01:18:29;;;;;;;;;;;;;;;26.60;45.49;99287.78;5128431;27;20395;-37
2021/07/21 01:21:09;;;;;;;;;;;;;;;26.75;44.95;99283.78;5111288;28;19939;-37
2021/07/21 01:23:47;;;;;;;;;;;;;;;26.84;44.51;99273.66;5112514;28;19912;-37
2021/07/21 01:26:16;;;;;;;;;;;;;;;27.00;44.21;99277.50;5099921;28;19923;-37
2021/07/21 01:28:42;;;;;;;;;;;;;;;26.66;45.36;99279.13;5090850;28;20064;-37
2021/07/21 01:31:07;;;;;;;;;;;;;;;26.80;45.11;99278.94;5090804;28;19951;-37
2021/07/21 01:33:33;;;;;;;;;;;;;;;26.91;44.46;99279.44;5092210;28;19912;-36
2021/07/21 01:36:00;;;;;;;;;;;;;;;26.69;44.74;99275.78;5091030;28;19916;-38
2021/07/21 01:38:28;;;;;;;;;;;;;;;26.86;44.18;99272.19;5090769;28;20014;-37
2021/07/21 01:40:54;;;;;;;;;;;;;;;26.78;44.20;99275.75;5092193;28;19912;-37
2021/07/21 01:43:20;;;;;;;;;;;;;;;27.00;43.72;99266.56;5091907;28;19960;-37
2021/07/21 01:45:46;;;;;;;;;;;;;;;27.05;43.53;99280.03;5091764;28;19920;-37
2021/07/21 01:48:12;;;;;;;;;;;;;;;26.98;43.71;99257.09;5091926;28;19934;-36
2021/07/21 01:50:37;;;;;;;;;;;;;;;26.69;44.11;99272.22;5090697;28;20409;-36
2021/07/21 01:53:03;;;;;;;;;;;;;;;26.65;44.23;99263.88;5090511;28;19912;-36
2021/07/21 01:55:28;;;;;;;;;;;;;;;26.63;44.45;99268.84;5091962;28;19912;-38
2021/07/21 01:57:53;;;;;;;;;;;;;;;26.75;44.00;99273.69;5090368;28;19998;-37
2021/07/21 02:00:19;;;;;;;;;;;;;;;26.39;44.91;99276.69;5090417;28;19999;-37
2021/07/21 02:02:47;;;;;;;;;;;;;;;26.45;44.32;99278.94;5091652;28;19912;-38
2021/07/21 02:05:12;;;;;;;;;;;;;;;26.24;45.10;99265.13;5091876;28;19912;-36
2021/07/21 02:07:37;;;;;;;;;;;;;;;26.40;44.72;99284.56;5091822;28;19938;-37
2021/07/21 02:10:04;;;;;;;;;;;;;;;26.76;43.87;99272.53;5090068;28;19922;-37
2021/07/21 02:12:29;;;;;;;;;;;;;;;26.77;43.82;99279.63;5091565;28;19916;-38
2021/07/21 02:14:54;;;;;;;;;;;;;;;26.44;44.28;99279.25;5090242;28;19916;-37
2021/07/21 02:17:19;;;;;;;;;;;;;;;26.53;44.29;99289.03;5092830;28;19976;-37
2021/07/21 02:19:45;;;;;;;;;;;;;;;26.29;44.64;99289.53;5110290;28;19924;-38
2021/07/21 02:22:11;;;;;;;;;;;;;;;26.42;44.47;99297.88;5111326;28;19964;-38
2021/07/21 02:24:36;;;;;;;;;;;;;;;26.52;44.31;99287.47;5111439;28;19964;-37
2021/07/21 02:27:02;;;;;;;;;;;;;;;26.32;44.42;99296.25;5110193;28;20010;-38
2021/07/21 02:29:27;;;;;;;;;;;;;;;26.36;44.37;99302.69;5111626;28;19923;-37
2021/07/21 02:32:01;;;;;;;;;;;;;;;26.38;44.45;99307.81;5111334;28;20259;-38
2021/07/21 02:34:26;;;;;;;;;;;;;;;25.99;45.06;99298.59;5111537;28;19912;-37
2021/07/21 02:36:51;;;;;;;;;;;;;;;26.33;44.49;99306.84;5111322;28;19911;-38
2021/07/21 02:39:16;;;;;;;;;;;;;;;26.32;44.47;99307.97;5111375;28;19920;-37
2021/07/21 02:41:43;;;;;;;;;;;;;;;26.22;44.68;99310.22;5111618;28;20014;-37
2021/07/21 02:44:08;;;;;;;;;;;;;;;26.26;44.38;99303.78;5111273;28;19918;-38
2021/07/21 02:46:33;;;;;;;;;;;;;;;26.42;44.44;99319.69;5111181;28;19915;-38
2021/07/21 02:49:00;;;;;;;;;;;;;;;26.47;44.27;99297.72;5111542;28;20554;-37
2021/07/21 02:51:40;;;;;;;;;;;;;;;26.45;44.34;99311.69;5111138;28;19954;-38
2021/07/21 02:54:12;;;;;;;;;;;;;;;26.49;44.09;99307.19;5111455;28;19911;-36
2021/07/21 02:56:39;;;;;;;;;;;;;;;26.36;44.16;99316.31;5109881;28;20398;-37
2021/07/21 02:59:05;;;;;;;;;;;;;;;26.44;44.09;99320.97;5109933;28;19961;-37
2021/07/21 03:01:32;;;;;;;;;;;;;;;26.29;44.46;99326.88;5099667;28;20350;-36
2021/07/21 03:03:57;;;;;;;;;;;;;;;26.61;43.86;99317.47;5090687;28;19934;-37
2021/07/21 03:06:23;;;;;;;;;;;;;;;26.64;43.54;99316.84;5090447;28;20543;-37
2021/07/21 03:08:49;;;;;;;;;;;;;;;26.58;43.24;99300.91;5089174;28;19913;-37
2021/07/21 03:11:14;;;;;;;;;;;;;;;26.81;43.05;99326.97;5088835;28;19912;-37
2021/07/21 03:13:46;;;;;;;;;;;;;;;26.75;43.37;99313.78;5090257;28;19962;-38
2021/07/21 03:16:11;;;;;;;;;;;;;;;26.71;43.53;99327.28;5089396;28;20368;-38
2021/07/21 03:18:36;;;;;;;;;;;;;;;26.70;43.11;99325.69;5102632;28;19957;-37
2021/07/21 03:21:02;;;;;;;;;;;;;;;26.87;42.90;99319.41;5100832;28;19941;-38
2021/07/21 03:23:27;;;;;;;;;;;;;;;26.80;42.91;99324.56;5088997;28;19912;-37
2021/07/21 03:25:53;;;;;;;;;;;;;;;26.77;43.20;99325.19;5088863;28;19916;-37
2021/07/21 03:28:18;;;;;;;;;;;;;;;26.79;43.13;99329.22;5088428;28;20264;-37
2021/07/21 03:30:43;;;;;;;;;;;;;;;26.56;43.55;99319.53;5089548;28;19976;-37
2021/07/21 03:33:09;;;;;;;;;;;;;;;26.87;43.06;99335.78;5090411;28;19970;-38
2021/07/21 03:35:34;;;;;;;;;;;;;;;26.62;43.59;99337.41;5092504;28;19919;-37
2021/07/21 03:37:59;;;;;;;;;;;;;;;26.61;43.58;99333.06;5093617;28;19923;-37
2021/07/21 03:40:25;;;;;;;;;;;;;;;26.83;43.23;99343.03;5093634;28;20395;-38
2021/07/21 03:42:51;;;;;;;;;;;;;;;26.83;43.18;99343.03;5093534;28;20221;-38
2021/07/21 03:45:16;;;;;;;;;;;;;;;26.82;43.43;99352.31;5093263;28;19923;-37
2021/07/21 03:47:42;;;;;;;;;;;;;;;26.83;43.40;99341.09;5093634;28;19912;-37
2021/07/21 03:50:08;;;;;;;;;;;;;;;27.02;43.04;99348.16;5093591;28;20217;-37
2021/07/21 03:52:33;;;;;;;;;;;;;;;27.21;42.55;99345.06;5093623;28;19947;-37
2021/07/21 03:54:58;;;;;;;;;;;;;;;26.89;43.34;99344.47;5092260;28;19912;-37
2021/07/21 03:57:24;;;;;;;;;;;;;;;27.13;42.92;99349.44;5092154;28;20057;-38
2021/07/21 03:59:49;;;;;;;;;;;;;;;27.52;41.94;99349.53;5093592;28;19968;-38
2021/07/21 04:02:16;;;;;;;;;;;;;;;26.99;42.99;99319.56;5092020;28;19931;-37
2021/07/21 04:04:43;;;;;;;;;;;;;;;27.42;42.24;99356.16;5092804;28;20553;-38
2021/07/21 04:07:08;;;;;;;;;;;;;;;27.34;42.58;99354.22;5090401;28;19916;-37
2021/07/21 04:09:34;;;;;;;;;;;;;;;27.42;42.32;99364.34;5091520;28;20302;-37
2021/07/21 04:12:00;;;;;;;;;;;;;;;27.85;41.33;99366.13;5090797;28;19961;-37
2021/07/21 04:14:25;;;;;;;;;;;;;;;27.55;42.00;99367.97;5092133;28;19937;-35
2021/07/21 04:16:50;;;;;;;;;;;;;;;27.76;41.62;99370.81;5091062;28;19930;-37
2021/07/21 04:19:15;;;;;;;;;;;;;;;28.10;40.96;99367.16;5109421;28;20395;-37
2021/07/21 04:21:41;;;;;;;;;;;;;;;28.33;40.52;99369.59;5111346;28;19918;-37
2021/07/21 04:24:08;;;;;;;;;;;;;;;28.15;40.89;99377.13;5093372;28;20251;-37
2021/07/21 04:26:33;;;;;;;;;;;;;;;28.10;41.13;99371.81;5090316;28;20375;-37
2021/07/21 04:28:59;;;;;;;;;;;;;;;28.21;41.04;99370.31;5091471;28;19912;-37
2021/07/21 04:31:27;;;;;;;;;;;;;;;28.30;40.90;99384.75;5090764;28;20433;-37
2021/07/21 04:33:53;;;;;;;;;;;;;;;29.11;39.41;99387.41;5090343;28;19916;-36
2021/07/21 04:36:19;;;;;;;;;;;;;;;29.03;39.26;99389.91;5091471;28;19919;-37
2021/07/21 04:38:44;;;;;;;;;;;;;;;29.03;39.34;99376.22;5091852;28;19911;-37
2021/07/21 04:41:10;;;;;;;;;;;;;;;28.04;41.55;99380.22;5091026;28;19923;-37
2021/07/21 04:43:35;;;;;;;;;;;;;;;27.97;42.07;99390.06;5090208;28;19908;-37
2021/07/21 04:46:00;;;;;;;;;;;;;;;28.18;41.75;99385.47;5091846;28;19920;-37
2021/07/21 04:48:26;;;;;;;;;;;;;;;28.65;40.86;99387.28;5092691;28;19922;-37
2021/07/21 04:50:51;;;;;;;;;;;;;;;28.90;40.32;99398.38;5090438;28;19919;-38
2021/07/21 04:53:16;;;;;;;;;;;;;;;29.65;38.81;99403.03;5090302;28;19912;-37
2021/07/21 04:55:42;;;;;;;;;;;;;;;29.74;38.42;99390.84;5090865;28;19934;-37
2021/07/21 04:58:08;;;;;;;;;;;;;;;29.71;38.70;99399.72;5090336;28;19919;-38
2021/07/21 05:00:34;;;;;;;;;;;;;;;29.78;38.34;99402.75;5090573;28;19912;-38
2021/07/21 05:03:03;;;;;;;;;;;;;;;28.96;40.04;99406.06;5090237;28;20395;-38
2021/07/21 05:05:28;;;;;;;;;;;;;;;29.07;39.92;99409.19;5090067;28;19919;-37
2021/07/21 05:07:53;;;;;;;;;;;;;;;29.56;38.59;99414.09;5089150;28;19912;-38
2021/07/21 05:10:19;;;;;;;;;;;;;;;29.54;38.80;99411.66;5090652;28;19912;-38
2021/07/21 05:12:44;;;;;;;;;;;;;;;29.91;37.71;99413.72;5089744;28;19912;-37
2021/07/21 05:15:11;;;;;;;;;;;;;;;29.89;38.07;99416.81;5090949;28;19912;-39
2021/07/21 05:17:36;;;;;;;;;;;;;;;30.40;37.15;99424.72;5091436;28;20046;-38
2021/07/21 05:20:02;;;;;;;;;;;;;;;31.09;36.45;99422.91;5091265;28;20403;-38
2021/07/21 05:22:28;;;;;;;;;;;;;;;30.99;36.22;99428.88;5091378;28;19912;-37
2021/07/21 05:24:53;;;;;;;;;;;;;;;30.64;36.95;99434.91;5091485;28;20397;-38
2021/07/21 05:27:18;;;;;;;;;;;;;;;31.17;36.63;99434.91;5091503;28;19955;-37
2021/07/21 05:29:44;;;;;;;;;;;;;;;31.58;35.37;99432.13;5091396;28;19912;-37
2021/07/21 05:32:09;;;;;;;;;;;;;;;31.87;35.04;99436.41;5091104;28;19912;-37
2021/07/21 05:34:34;;;;;;;;;;;;;;;31.95;34.85;99435.44;5091142;28;19912;-38
2021/07/21 05:36:59;;;;;;;;;;;;;;;31.76;35.30;99431.44;5090790;28;19980;-37
2021/07/21 05:39:25;;;;;;;;;;;;;;;32.14;34.71;99423.75;5090502;28;19916;-38
2021/07/21 05:41:56;;;;;;;;;;;;;;;32.37;33.97;99432.16;5091091;28;20394;-36
2021/07/21 05:44:21;;;;;;;;;;;;;;;32.48;33.77;99432.38;5090986;28;19939;-38
2021/07/21 05:46:46;;;;;;;;;;;;;;;31.98;34.39;99434.72;5089437;28;19916;-38
2021/07/21 05:49:12;;;;;;;;;;;;;;;31.04;35.72;99431.41;5091179;28;19912;-38
2021/07/21 05:51:37;;;;;;;;;;;;;;;30.92;36.23;99428.66;5091033;28;19916;-38
2021/07/21 05:54:02;;;;;;;;;;;;;;;31.36;34.92;99393.03;5090675;28;19961;-38
2021/07/21 05:56:29;;;;;;;;;;;;;;;31.86;34.52;99434.81;5090103;28;19912;-38
2021/07/21 05:58:55;;;;;;;;;;;;;;;32.00;33.60;99431.63;5090724;28;19928;-38
2021/07/21 06:01:20;;;;;;;;;;;;;;;32.79;32.69;99433.50;5090573;28;19939;-38
2021/07/21 06:03:45;;;;;;;;;;;;;;;32.86;32.52;99451.00;5090568;28;19962;-37
2021/07/21 06:06:11;;;;;;;;;;;;;;;32.83;32.47;99435.16;5090066;28;19966;-38
2021/07/21 06:08:36;;;;;;;;;;;;;;;33.25;31.70;99428.19;5090364;28;19912;-37
2021/07/21 06:11:02;;;;;;;;;;;;;;;32.92;31.88;99432.22;5090129;28;19912;-38
2021/07/21 06:13:27;;;;;;;;;;;;;;;32.93;31.69;99429.09;5090307;28;19985;-38
2021/07/21 06:15:52;;;;;;;;;;;;;;;32.61;32.40;99435.84;5090621;28;19912;-38
2021/07/21 06:18:18;;;;;;;;;;;;;;;32.76;31.79;99435.00;5100938;28;19970;-38
2021/07/21 06:20:43;;;;;;;;;;;;;;;33.18;30.82;99431.59;5110323;27;19920;-38
2021/07/21 06:23:08;;;;;;;;;;;;;;;32.66;31.09;99443.84;5110574;28;19968;-38
2021/07/21 06:25:34;;;;;;;;;;;;;;;32.25;32.02;99443.25;5110554;28;20299;-38
2021/07/21 06:27:59;;;;;;;;;;;;;;;32.34;32.09;99443.88;5110714;28;19916;-37
2021/07/21 06:30:24;;;;;;;;;;;;;;;33.02;31.08;99439.91;5110504;28;19915;-36
2021/07/21 06:32:49;;;;;;;;;;;;;;;33.93;29.88;99445.19;5110500;28;19998;-38
2021/07/21 06:35:15;;;;;;;;;;;;;;;33.67;30.05;99438.44;5110101;28;19912;-38
2021/07/21 06:37:40;;;;;;;;;;;;;;;34.34;29.31;99442.75;5110458;28;19916;-37
2021/07/21 06:40:08;;;;;;;;;;;;;;;33.91;29.00;99444.75;5110434;28;19919;-38
2021/07/21 06:42:33;;;;;;;;;;;;;;;34.38;28.60;99451.88;5110536;28;19912;-38
2021/07/21 06:44:59;;;;;;;;;;;;;;;34.53;28.60;99445.38;5109777;28;19919;-38
2021/07/21 06:47:24;;;;;;;;;;;;;;;33.92;28.90;99447.16;5109782;28;19965;-36
2021/07/21 06:49:49;;;;;;;;;;;;;;;33.56;29.22;99438.22;5110058;28;19912;-38
2021/07/21 06:52:15;;;;;;;;;;;;;;;33.76;28.60;99443.72;5104200;28;19916;-52
2021/07/21 06:54:41;;;;;;;;;;;;;;;33.39;28.91;99439.47;5090997;28;20360;-50
2021/07/21 06:57:06;;;;;;;;;;;;;;;34.45;28.21;99443.69;5089993;28;19962;-51
2021/07/21 06:59:32;;;;;;;;;;;;;;;34.34;27.98;99440.78;5090864;28;19934;-51
2021/07/21 07:01:58;;;;;;;;;;;;;;;33.50;29.02;99429.44;5090490;28;20296;-52
2021/07/21 07:04:23;;;;;;;;;;;;;;;34.28;28.30;99434.75;5090563;28;20553;-52
2021/07/21 07:06:48;;;;;;;;;;;;;;;35.24;27.13;99426.25;5090040;28;20006;-52
2021/07/21 07:09:13;;;;;;;;;;;;;;;35.53;26.27;99429.31;5074617;28;19919;-52
2021/07/21 07:11:39;;;;;;;;;;;;;;;34.15;27.88;99430.59;5094821;28;19955;-52
2021/07/21 07:14:04;;;;;;;;;;;;;;;34.40;28.09;99422.72;5094891;28;19912;-52
2021/07/21 07:16:30;;;;;;;;;;;;;;;34.63;27.03;99427.38;5094901;28;20070;-51
2021/07/21 07:18:55;;;;;;;;;;;;;;;34.98;26.58;99429.06;5110884;28;19924;-51
2021/07/21 07:21:21;;;;;;;;;;;;;;;35.10;26.15;99425.25;5116006;28;19912;-52
2021/07/21 07:23:49;;;;;;;;;;;;;;;34.26;27.22;99426.06;5115686;28;19911;-52
2021/07/21 07:26:15;;;;;;;;;;;;;;;33.52;27.73;99423.56;5096569;28;19923;-51
2021/07/21 07:28:41;;;;;;;;;;;;;;;33.73;27.54;99427.91;5095075;28;19916;-52
2021/07/21 07:31:06;;;;;;;;;;;;;;;33.86;27.41;99429.31;5095224;28;19930;-52
2021/07/21 07:33:31;;;;;;;;;;;;;;;34.00;26.78;99429.56;5094973;28;19916;-52
2021/07/21 07:35:56;;;;;;;;;;;;;;;33.83;27.04;99430.88;5095049;28;20279;-51
2021/07/21 07:38:22;;;;;;;;;;;;;;;34.32;27.17;99420.22;5094244;28;19912;-52
2021/07/21 07:40:47;;;;;;;;;;;;;;;34.13;26.43;99423.84;5094795;28;19912;-51
2021/07/21 07:43:12;;;;;;;;;;;;;;;34.11;26.43;99423.44;5094572;28;19989;-52
2021/07/21 07:45:38;;;;;;;;;;;;;;;34.79;25.46;99430.00;5094515;28;19912;-52
2021/07/21 07:48:03;;;;;;;;;;;;;;;35.30;25.07;99423.13;5094638;28;19919;-52
2021/07/21 07:50:28;;;;;;;;;;;;;;;34.05;26.25;99428.47;5094640;28;20261;-52
2021/07/21 07:52:54;;;;;;;;;;;;;;;33.99;26.04;99432.69;5094475;28;19962;-52
2021/07/21 07:55:19;;;;;;;;;;;;;;;33.68;26.45;99440.03;5094180;28;19938;-52
2021/07/21 07:57:45;;;;;;;;;;;;;;;33.48;26.73;99434.53;5094610;28;19912;-51
2021/07/21 08:00:11;;;;;;;;;;;;;;;34.71;25.07;99431.06;5094418;28;19955;-51
2021/07/21 08:02:36;;;;;;;;;;;;;;;34.60;24.84;99437.22;5094346;28;19912;-53
2021/07/21 08:05:02;;;;;;;;;;;;;;;33.73;26.25;99434.22;5094277;28;19916;-50
2021/07/21 08:07:32;;;;;;;;;;;;;;;33.23;26.53;99433.25;5094100;28;19916;-51
2021/07/21 08:09:57;;;;;;;;;;;;;;;33.79;25.98;99429.97;5094234;28;19922;-51
2021/07/21 08:12:23;;;;;;;;;;;;;;;33.86;25.62;99440.38;5094106;28;19912;-51
2021/07/21 08:14:48;;;;;;;;;;;;;;;34.53;24.64;99445.38;5094084;28;19912;-50
2021/07/21 08:17:14;;;;;;;;;;;;;;;33.64;25.52;99433.66;5096251;28;19912;-53
2021/07/21 08:19:40;;;;;;;;;;;;;;;33.98;25.75;99431.88;5114352;28;20307;-52
2021/07/21 08:22:05;;;;;;;;;;;;;;;33.91;25.60;99439.25;5114299;28;19915;-51
2021/07/21 08:24:30;;;;;;;;;;;;;;;34.08;25.31;99433.22;5108237;28;20423;-38
2021/07/21 08:26:56;;;;;;;;;;;;;;;34.18;25.25;99435.41;5093612;28;19954;-37
2021/07/21 08:29:21;;;;;;;;;;;;;;;33.75;24.82;99423.63;5093812;28;19916;-42
2021/07/21 08:31:46;;;;;;;;;;;;;;;33.33;25.41;99418.88;5093256;28;19912;-38
2021/07/21 08:34:12;;;;;;;;;;;;;;;33.57;25.59;99423.28;5093054;28;19923;-38
2021/07/21 08:36:38;;;;;;;;;;;;;;;33.81;25.19;99421.34;5093544;28;19928;-37
2021/07/21 08:39:04;;;;;;;;;;;;;;;33.54;25.55;99445.28;5093519;28;19920;-38
2021/07/21 08:41:29;;;;;;;;;;;;;;;34.05;24.50;99420.19;5094020;28;19912;-38
2021/07/21 08:43:54;;;;;;;;;;;;;;;34.60;24.13;99415.13;5092057;28;19928;-40
2021/07/21 08:46:20;;;;;;;;;;;;;;;33.93;24.81;99429.44;5093329;28;20015;-38
2021/07/21 08:48:47;;;;;;;;;;;;;;;34.10;25.00;99422.63;5093566;28;19912;-37
2021/07/21 08:51:12;;;;;;;;;;;;;;;34.54;24.22;99416.63;5091715;28;19947;-38
2021/07/21 08:53:37;;;;;;;;;;;;;;;34.66;23.48;99412.81;5092006;28;19955;-37
2021/07/21 08:56:03;;;;;;;;;;;;;;;34.93;22.64;99419.13;5093335;28;20345;-38
2021/07/21 08:58:28;;;;;;;;;;;;;;;34.69;23.11;99419.59;5093026;28;19912;-38
2021/07/21 09:00:54;;;;;;;;;;;;;;;34.31;23.18;99413.91;5092992;28;20358;-36
2021/07/21 09:03:21;;;;;;;;;;;;;;;34.33;23.00;99419.03;5093587;28;19916;-39
2021/07/21 09:05:47;;;;;;;;;;;;;;;34.76;22.82;99425.22;5093185;28;19940;-38
2021/07/21 09:08:12;;;;;;;;;;;;;;;35.35;21.73;99420.03;5092785;28;19935;-37
2021/07/21 09:10:38;;;;;;;;;;;;;;;35.54;21.11;99414.28;5092999;28;19912;-38
2021/07/21 09:13:03;;;;;;;;;;;;;;;35.81;20.89;99419.69;5092844;28;19912;-38
2021/07/21 09:15:28;;;;;;;;;;;;;;;35.68;20.35;99415.63;5093092;28;20049;-38
2021/07/21 09:17:58;;;;;;;;;;;;;;;35.10;20.39;99426.03;5093296;28;19952;-39
2021/07/21 09:20:23;;;;;;;;;;;;;;;34.22;20.73;99418.91;5100645;28;19928;-38
2021/07/21 09:22:51;;;;;;;;;;;;;;;35.09;20.85;99412.59;5103450;28;19931;-39
2021/07/21 09:25:17;;;;;;;;;;;;;;;35.61;19.98;99425.44;5091799;28;19916;-38
2021/07/21 09:27:44;;;;;;;;;;;;;;;35.11;20.15;99415.75;5091904;28;19935;-39
2021/07/21 09:30:09;;;;;;;;;;;;;;;35.18;20.70;99407.59;5095693;28;20054;-39
2021/07/21 09:32:51;;;;;;;;;;;;;;;35.47;20.14;99413.41;5098682;28;19965;-38
2021/07/21 09:35:16;;;;;;;;;;;;;;;35.40;20.38;99420.47;5098343;28;19924;-39
2021/07/21 09:37:41;;;;;;;;;;;;;;;35.50;19.95;99407.94;5092529;28;19923;-38
2021/07/21 09:40:07;;;;;;;;;;;;;;;35.74;19.93;99409.38;5092143;28;20030;-38
2021/07/21 09:42:34;;;;;;;;;;;;;;;35.72;19.77;99406.19;5091883;28;19931;-38
2021/07/21 09:44:59;;;;;;;;;;;;;;;35.34;19.41;99401.81;5092296;28;19969;-39
2021/07/21 09:47:25;;;;;;;;;;;;;;;35.39;19.87;99407.81;5090431;28;19920;-39
2021/07/21 09:49:50;;;;;;;;;;;;;;;35.68;19.84;99397.06;5091208;28;19912;-39
2021/07/21 09:52:20;;;;;;;;;;;;;;;35.97;19.30;99402.84;5091803;28;20003;-39
2021/07/21 09:55:04;;;;;;;;;;;;;;;36.08;18.72;99400.97;5091919;28;19912;-39
2021/07/21 09:57:30;;;;;;;;;;;;;;;35.33;18.98;99401.03;5091288;28;19942;-37
2021/07/21 09:59:57;;;;;;;;;;;;;;;35.61;19.47;99394.22;5091385;28;19912;-39
2021/07/21 10:02:25;;;;;;;;;;;;;;;35.78;19.61;99401.91;5091362;28;20287;-39
2021/07/21 10:04:50;;;;;;;;;;;;;;;36.00;19.60;99391.81;5091882;28;19912;-39
2021/07/21 10:09:56;;;;;;;;;;;;;;;35.31;18.49;99397.88;5088972;28;19912;-38
2021/07/21 10:12:21;;;;;;;;;;;;;;;34.61;19.25;99389.06;5091221;28;20026;-38
2021/07/21 10:14:56;;;;;;;;;;;;;;;34.39;19.64;99373.41;5091513;28;19920;-39
2021/07/21 10:17:21;;;;;;;;;;;;;;;34.54;20.50;99375.19;5091621;28;19920;-39
2021/07/21 10:19:47;;;;;;;;;;;;;;;35.91;19.19;99376.69;5091102;28;19981;-39
2021/07/21 10:22:12;;;;;;;;;;;;;;;34.97;19.24;99380.47;5089917;28;20098;-39
2021/07/21 10:24:39;;;;;;;;;;;;;;;35.03;18.85;99377.00;5088583;28;19912;-39
2021/07/21 10:27:04;;;;;;;;;;;;;;;34.71;19.11;99381.31;5089389;28;20019;-38
2021/07/21 10:29:30;;;;;;;;;;;;;;;34.71;19.77;99367.50;5089343;28;20354;-38
2021/07/21 10:31:55;;;;;;;;;;;;;;;35.23;19.17;99368.56;5089304;28;20007;-39
2021/07/21 10:34:21;;;;;;;;;;;;;;;35.16;19.21;99365.66;5089700;28;19916;-39
2021/07/21 10:36:46;;;;;;;;;;;;;;;35.19;19.16;99368.50;5089340;28;19935;-39
2021/07/21 10:39:16;;;;;;;;;;;;;;;35.14;19.09;99366.03;5090468;28;19923;-39
2021/07/21 10:41:41;;;;;;;;;;;;;;;35.23;18.69;99369.34;5089713;28;19920;-39
2021/07/21 10:44:07;;;;;;;;;;;;;;;35.01;18.44;99348.94;5091459;28;19999;-38
2021/07/21 10:46:37;;;;;;;;;;;;;;;35.13;18.65;99366.41;5090866;28;19923;-38
2021/07/21 11:00:18;;;;;;;;;;;;;;;36.49;17.90;99350.19;5090745;28;19919;-39
2021/07/21 11:02:44;;;;;;;;;;;;;;;36.14;18.56;99355.13;5091048;28;20275;-39
2021/07/21 11:05:30;;;;;;;;;;;;;;;36.04;17.68;99336.44;5090581;28;20014;-39
2021/07/21 11:07:55;;;;;;;;;;;;;;;35.86;18.18;99341.09;5090438;28;19960;-38
2021/07/21 11:10:33;;;;;;;;;;;;;;;35.72;18.36;99338.97;5090575;28;19947;-38
2021/07/21 11:12:58;;;;;;;;;;;;;;;36.44;18.06;99328.41;5090243;28;20022;-39
2021/07/21 11:15:33;;;;;;;;;;;;;;;36.74;17.93;99319.84;5090452;28;19951;-39
2021/07/21 11:18:16;;;;;;;;;;;;;;;36.27;18.50;99321.56;5090613;28;20383;-38
2021/07/21 11:20:57;;;;;;;;;;;;;;;36.01;18.18;99318.63;5090367;28;19981;-38
2021/07/21 11:23:41;;;;;;;;;;;;;;;35.91;18.10;99313.84;5090464;28;19966;-38
2021/07/21 11:26:43;;;;;;;;;;;;;;;35.74;18.82;99295.94;5090424;28;20279;-39
2021/07/21 11:29:24;;;;;;;;;;;;;;;36.03;18.59;99318.25;5079094;28;19912;-37
2021/07/21 11:31:49;;;;;;;;;;;;;;;35.81;18.41;99311.78;5090475;28;19969;-39
2021/07/21 11:34:15;;;;;;;;;;;;;;;35.82;18.86;99314.16;5090665;28;19998;-39
2021/07/21 11:36:43;;;;;;;;;;;;;;;35.92;18.88;99318.19;5089409;28;19920;-38
2021/07/21 11:39:27;;;;;;;;;;;;;;;35.49;18.99;99301.25;5090413;28;19919;-38
2021/07/21 11:41:54;;;;;;;;;;;;;;;36.07;18.78;99315.50;5090618;28;19919;-39
2021/07/21 11:44:23;;;;;;;;;;;;;;;36.40;18.21;99301.50;5090749;28;19912;-39
2021/07/21 11:46:49;;;;;;;;;;;;;;;36.42;18.32;99309.38;5090254;28;20256;-39
2021/07/21 11:49:18;;;;;;;;;;;;;;;36.28;18.23;99301.81;5088423;28;19912;-39
2021/07/21 11:51:47;;;;;;;;;;;;;;;36.04;18.44;99294.91;5089767;28;19912;-38
2021/07/21 11:54:12;;;;;;;;;;;;;;;36.22;18.88;99302.59;5092161;28;19920;-38
2021/07/21 11:56:37;;;;;;;;;;;;;;;35.88;18.76;99308.28;5092279;28;19918;-38
2021/07/21 11:59:05;;;;;;;;;;;;;;;34.90;19.34;99289.19;5093739;28;19962;-38
2021/07/21 12:01:31;;;;;;;;;;;;;;;34.85;19.55;99285.59;5094020;28;19920;-38
2021/07/21 12:03:56;;;;;;;;;;;;;;;34.61;20.22;99302.66;5093072;28;19912;-38
2021/07/21 12:06:22;;;;;;;;;;;;;;;35.25;19.95;99291.53;5093788;28;20023;-38
2021/07/21 12:08:52;;;;;;;;;;;;;;;34.97;20.11;99292.81;5093665;28;19908;-38
2021/07/21 12:11:17;;;;;;;;;;;;;;;35.00;19.82;99297.59;5093867;28;20362;-38
2021/07/21 12:13:43;;;;;;;;;;;;;;;35.32;19.10;99288.84;5094006;28;20340;-38
2021/07/21 12:16:08;;;;;;;;;;;;;;;35.57;19.33;99297.34;5093510;28;19912;-38
2021/07/21 12:18:33;;;;;;;;;;;;;;;35.49;19.47;99295.72;5093786;28;19931;-39
2021/07/21 12:21:08;;;;;;;;;;;;;;;35.54;19.52;99291.78;5093673;28;19961;-39
2021/07/21 12:23:33;;;;;;;;;;;;;;;35.87;19.61;99306.69;5093575;28;19951;-38
2021/07/21 12:26:05;;;;;;;;;;;;;;;35.89;18.60;99302.38;5093505;28;19958;-38
2021/07/21 12:28:31;;;;;;;;;;;;;;;36.07;18.50;99285.06;5093300;28;19912;-38
2021/07/21 12:30:57;;;;;;;;;;;;;;;36.18;19.19;99294.25;5092719;28;19912;-38
2021/07/21 12:33:22;;;;;;;;;;;;;;;35.62;19.42;99287.88;5093319;28;20061;-39
2021/07/21 12:35:47;;;;;;;;;;;;;;;35.77;19.65;99289.59;5093187;28;19920;-38
2021/07/21 12:38:12;;;;;;;;;;;;;;;36.14;19.53;99291.44;5092881;28;20368;-38
2021/07/21 12:40:38;;;;;;;;;;;;;;;36.01;18.85;99288.19;5093034;28;19947;-38
2021/07/21 12:43:03;;;;;;;;;;;;;;;35.68;19.67;99294.72;5093102;28;19912;-39
2021/07/21 12:45:32;;;;;;;;;;;;;;;35.64;19.78;99307.66;5092896;28;19962;-37
2021/07/21 12:47:57;;;;;;;;;;;;;;;35.88;19.14;99298.00;5092955;28;20036;-38
2021/07/21 12:50:22;;;;;;;;;;;;;;;35.91;19.19;99288.94;5093004;28;20368;-39
2021/07/21 12:52:48;;;;;;;;;;;;;;;36.09;18.59;99277.16;5092925;28;19916;-40
2021/07/21 12:55:14;;;;;;;;;;;;;;;35.41;19.54;99278.25;5092980;28;19934;-38
2021/07/21 12:57:45;;;;;;;;;;;;;;;35.12;19.77;99288.22;5092914;28;20339;-38
2021/07/21 13:00:15;;;;;;;;;;;;;;;35.28;19.88;99273.38;5093122;28;19918;-38
2021/07/21 13:02:40;;;;;;;;;;;;;;;35.63;19.80;99286.72;5092528;28;19912;-38